Adrian, Ohio
Current Conditions -  °F | °C
As of 7:53 AM on Wednesday 22 Oct 2014 (Local Time) from KFDY Reporting Station
Overcast Overcast  
Wind Chill:   Ceiling: 2600
Heat Index:   Visibility: 10mi
Dew Point:   Wind: 8mph
Humidity: 80%   Direction: 330°NNW
Pressure: 30.26"   Gusts: NA
Location:  41°N, 83.32°W
Report Text: KFDY 221153Z AUTO 33007KT 10SM SCT016 OVC026 07/04 A3026 RMK AO2 SLP247 T00720039 10072 20061 51016
Loading
Personal Weather Stations






























Interactive Weather Map
Tropical Storm Tracking
New forecast layout! Learn more

10-Day Weather Forecast

Advertisements
Track Severe Weather on mobile